Time;durP1;ratioP1;P1;durP2;ratioP2;P2;SDS_P1;SDS_P2;PMS_P1;PMS_P2;Temp;Humidity;BMP_temperature;BMP_pressure;BME280_temperature;BME280_humidity;BME280_pressure;Samples;Min_cycle;Max_cycle;Signal;HPM_P1;HPM_P2
2022/05/13 00:01:32;;;;;;;7.83;1.70;;;;;;;;;;4994953;28;20040;-69
2022/05/13 00:03:58;;;;;;;4.60;1.20;;;;;;;;;;4991669;28;20290;-69
2022/05/13 00:06:23;;;;;;;6.55;1.58;;;;;;;;;;4991845;28;20320;-68
2022/05/13 00:08:48;;;;;;;7.27;1.50;;;;;;;;;;4995903;28;20030;-69
2022/05/13 00:11:14;;;;;;;10.93;1.92;;;;;;;;;;4993973;28;20307;-68
2022/05/13 00:13:39;;;;;;;7.65;2.85;;;;;;;;;;4994293;28;20022;-68
2022/05/13 00:16:05;;;;;;;6.03;1.90;;;;;;;;;;4996117;28;20082;-68
2022/05/13 00:18:30;;;;;;;7.72;1.80;;;;;;;;;;4991881;28;20379;-68
2022/05/13 00:20:55;;;;;;;5.82;1.90;;;;;;;;;;4994432;28;20124;-68
2022/05/13 00:23:21;;;;;;;5.55;1.60;;;;;;;;;;4994828;28;20459;-68
2022/05/13 00:25:46;;;;;;;5.43;1.50;;;;;;;;;;4992928;28;20044;-68
2022/05/13 00:28:13;;;;;;;3.90;2.10;;;;;;;;;;4996654;28;20291;-68
2022/05/13 00:30:39;;;;;;;10.15;2.55;;;;;;;;;;4994258;28;20022;-68
2022/05/13 00:33:05;;;;;;;3.85;1.30;;;;;;;;;;4993579;28;20080;-68
2022/05/13 00:35:30;;;;;;;5.88;2.15;;;;;;;;;;4994346;28;20030;-68
2022/05/13 00:37:55;;;;;;;4.25;1.67;;;;;;;;;;4994836;28;20076;-68
2022/05/13 00:40:21;;;;;;;3.33;2.13;;;;;;;;;;4994262;28;20385;-68
2022/05/13 00:42:47;;;;;;;7.82;1.98;;;;;;;;;;4998248;28;20270;-68
2022/05/13 00:45:13;;;;;;;9.35;1.80;;;;;;;;;;4996394;28;20365;-68
2022/05/13 00:47:38;;;;;;;6.80;1.50;;;;;;;;;;4997912;28;20025;-68
2022/05/13 00:50:04;;;;;;;8.93;2.00;;;;;;;;;;4996069;28;20129;-68
2022/05/13 00:52:29;;;;;;;7.32;2.20;;;;;;;;;;4997267;28;20033;-68
2022/05/13 00:54:54;;;;;;;9.65;2.55;;;;;;;;;;4998166;28;20083;-68
2022/05/13 00:57:21;;;;;;;9.13;2.45;;;;;;;;;;4996700;28;20494;-68
2022/05/13 00:59:47;;;;;;;8.38;2.50;;;;;;;;;;4997710;28;20026;-68
2022/05/13 01:02:13;;;;;;;6.55;2.30;;;;;;;;;;4995653;28;20540;-68
2022/05/13 01:04:38;;;;;;;11.52;2.40;;;;;;;;;;4997312;28;20049;-69
2022/05/13 01:07:09;;;;;;;10.60;2.67;;;;;;;;;;4998561;28;20030;-69
2022/05/13 01:09:38;;;;;;;5.97;2.70;;;;;;;;;;4991647;28;20395;-68
2022/05/13 01:12:07;;;;;;;9.10;2.50;;;;;;;;;;5000272;28;20041;-68
2022/05/13 01:14:38;;;;;;;11.07;2.45;;;;;;;;;;4988246;28;20427;-68
2022/05/13 01:20:01;;;;;;;5.35;2.13;;;;;;;;;;4992665;28;20095;-68
2022/05/13 01:22:26;;;;;;;8.85;2.60;;;;;;;;;;4993038;28;20026;-68
2022/05/13 01:24:51;;;;;;;9.07;2.85;;;;;;;;;;4991526;28;20068;-68
2022/05/13 01:27:16;;;;;;;6.47;2.27;;;;;;;;;;4991241;28;20030;-69
2022/05/13 01:29:41;;;;;;;3.60;2.00;;;;;;;;;;4994656;28;20283;-69
2022/05/13 01:32:07;;;;;;;6.28;2.58;;;;;;;;;;4976797;28;20136;-68
2022/05/13 01:34:32;;;;;;;12.88;2.92;;;;;;;;;;4994393;28;20053;-68
2022/05/13 01:36:57;;;;;;;6.67;2.73;;;;;;;;;;4994834;28;20026;-68
2022/05/13 01:39:22;;;;;;;9.63;2.60;;;;;;;;;;4998837;28;20267;-68
2022/05/13 01:41:48;;;;;;;8.48;3.42;;;;;;;;;;4998879;28;20326;-68
2022/05/13 01:44:13;;;;;;;20.80;4.43;;;;;;;;;;5000523;28;20273;-69
2022/05/13 01:46:38;;;;;;;13.23;2.88;;;;;;;;;;5001562;28;20072;-70
2022/05/13 01:49:03;;;;;;;7.43;2.92;;;;;;;;;;5002987;28;20031;-69
2022/05/13 01:51:29;;;;;;;10.02;3.30;;;;;;;;;;5002924;28;20041;-68
2022/05/13 01:53:54;;;;;;;13.47;4.90;;;;;;;;;;4994063;28;20753;-69
2022/05/13 01:56:19;;;;;;;11.07;2.65;;;;;;;;;;4977510;28;20259;-69
2022/05/13 01:58:45;;;;;;;8.90;3.10;;;;;;;;;;4996354;28;20049;-69
2022/05/13 02:01:10;;;;;;;7.93;3.00;;;;;;;;;;4973481;28;20124;-69
2022/05/13 02:03:45;;;;;;;9.35;3.47;;;;;;;;;;4974916;28;20030;-69
2022/05/13 02:06:14;;;;;;;8.95;3.33;;;;;;;;;;4993406;28;20093;-68
2022/05/13 02:08:40;;;;;;;8.85;3.05;;;;;;;;;;4994711;28;20030;-68
2022/05/13 02:11:05;;;;;;;9.20;2.72;;;;;;;;;;4993327;28;20391;-70
2022/05/13 02:13:31;;;;;;;9.77;3.00;;;;;;;;;;4990891;28;20026;-69
2022/05/13 02:15:56;;;;;;;7.10;2.75;;;;;;;;;;4997404;28;20381;-69
2022/05/13 02:18:22;;;;;;;6.57;2.80;;;;;;;;;;4993782;28;20037;-69
2022/05/13 02:20:47;;;;;;;8.68;3.55;;;;;;;;;;4997346;28;20037;-69
2022/05/13 02:23:13;;;;;;;12.45;3.75;;;;;;;;;;4994513;28;20270;-69
2022/05/13 02:25:38;;;;;;;14.95;3.60;;;;;;;;;;4990694;28;20121;-68
2022/05/13 02:28:03;;;;;;;7.75;3.25;;;;;;;;;;4996162;28;20034;-68
2022/05/13 02:30:29;;;;;;;7.60;3.28;;;;;;;;;;4998739;28;20032;-68
2022/05/13 02:32:54;;;;;;;12.23;3.50;;;;;;;;;;4996685;28;20023;-68
2022/05/13 02:35:19;;;;;;;9.25;3.58;;;;;;;;;;4995124;28;20340;-68
2022/05/13 02:37:45;;;;;;;10.75;3.20;;;;;;;;;;4991424;28;20057;-68
2022/05/13 02:40:10;;;;;;;15.40;4.97;;;;;;;;;;4993689;28;20126;-68
2022/05/13 02:42:35;;;;;;;8.77;3.35;;;;;;;;;;4996194;28;20608;-67
2022/05/13 02:45:01;;;;;;;17.83;4.53;;;;;;;;;;4992509;28;20125;-69
2022/05/13 02:47:26;;;;;;;13.75;4.40;;;;;;;;;;4994566;28;20028;-68
2022/05/13 02:50:17;;;;;;;10.50;4.00;;;;;;;;;;4991685;28;20378;-68
2022/05/13 02:52:36;;;;;;;10.07;3.97;;;;;;;;;;4995978;28;20041;-69
2022/05/13 02:55:02;;;;;;;9.38;4.22;;;;;;;;;;4992944;28;20113;-67
2022/05/13 02:57:27;;;;;;;9.45;3.88;;;;;;;;;;5000060;28;20473;-68
2022/05/13 02:59:52;;;;;;;13.00;3.45;;;;;;;;;;4992087;28;20026;-68
2022/05/13 03:02:17;;;;;;;11.97;4.20;;;;;;;;;;4977542;28;20032;-68
2022/05/13 03:04:42;;;;;;;9.50;4.07;;;;;;;;;;4996096;28;20303;-69
2022/05/13 03:07:07;;;;;;;15.23;3.85;;;;;;;;;;4996408;28;20187;-69
2022/05/13 03:09:33;;;;;;;13.07;4.05;;;;;;;;;;4991681;28;21386;-68
2022/05/13 03:11:59;;;;;;;12.98;4.15;;;;;;;;;;4992458;28;20026;-69
2022/05/13 03:14:24;;;;;;;10.15;4.20;;;;;;;;;;4993224;28;20030;-69
2022/05/13 03:16:50;;;;;;;14.00;4.00;;;;;;;;;;4996614;28;20563;-69
2022/05/13 03:19:15;;;;;;;20.63;4.38;;;;;;;;;;4993344;28;20306;-67
2022/05/13 03:21:40;;;;;;;15.15;4.38;;;;;;;;;;4996909;28;20048;-68
2022/05/13 03:24:05;;;;;;;15.37;5.00;;;;;;;;;;4995198;28;20030;-68
2022/05/13 03:26:30;;;;;;;14.40;4.47;;;;;;;;;;4992609;28;20275;-68
2022/05/13 03:28:56;;;;;;;10.47;4.10;;;;;;;;;;4996846;28;20396;-68
2022/05/13 03:31:21;;;;;;;16.43;4.40;;;;;;;;;;4995656;28;20267;-69
2022/05/13 03:33:47;;;;;;;13.10;4.65;;;;;;;;;;4994645;28;20260;-67
2022/05/13 03:36:14;;;;;;;19.52;5.57;;;;;;;;;;4991114;28;20022;-68
2022/05/13 03:38:40;;;;;;;15.35;4.65;;;;;;;;;;4973288;28;20488;-68
2022/05/13 03:41:05;;;;;;;19.25;4.80;;;;;;;;;;4993153;28;20112;-67
2022/05/13 03:43:31;;;;;;;12.65;4.30;;;;;;;;;;4993438;28;20051;-68
2022/05/13 03:45:56;;;;;;;15.00;5.28;;;;;;;;;;4990616;28;20041;-68
2022/05/13 03:48:21;;;;;;;13.32;5.32;;;;;;;;;;4990074;28;20044;-68
2022/05/13 03:50:46;;;;;;;20.37;5.07;;;;;;;;;;4978038;28;20022;-68
2022/05/13 03:53:12;;;;;;;24.27;5.90;;;;;;;;;;4983034;28;20350;-68
2022/05/13 03:55:37;;;;;;;19.00;5.72;;;;;;;;;;5002071;28;20302;-69
2022/05/13 03:58:03;;;;;;;20.10;5.47;;;;;;;;;;4999865;28;20528;-68
2022/05/13 04:00:28;;;;;;;18.50;4.72;;;;;;;;;;4997966;28;20470;-69
2022/05/13 04:02:53;;;;;;;12.00;4.70;;;;;;;;;;4978507;28;20393;-68
2022/05/13 04:10:47;;;;;;;14.48;5.40;;;;;;;;;;4994320;28;20040;-68
2022/05/13 04:16:08;;;;;;;20.60;5.82;;;;;;;;;;4996600;28;20032;-67
2022/05/13 04:18:41;;;;;;;17.70;5.53;;;;;;;;;;4994498;28;20038;-68
2022/05/13 04:21:08;;;;;;;22.35;6.00;;;;;;;;;;4998427;28;20149;-67
2022/05/13 04:23:34;;;;;;;19.95;6.07;;;;;;;;;;4997384;28;20040;-69
2022/05/13 04:25:59;;;;;;;23.05;6.20;;;;;;;;;;4995224;28;20029;-68
2022/05/13 04:28:24;;;;;;;27.03;6.47;;;;;;;;;;4996063;28;20164;-68
2022/05/13 04:30:49;;;;;;;18.02;5.72;;;;;;;;;;4999796;28;20629;-68
2022/05/13 04:33:14;;;;;;;15.25;6.18;;;;;;;;;;5003625;28;20033;-68
2022/05/13 04:35:40;;;;;;;18.37;5.83;;;;;;;;;;4996576;28;20022;-69
2022/05/13 04:38:05;;;;;;;15.88;5.63;;;;;;;;;;5003031;28;20797;-69
2022/05/13 04:40:30;;;;;;;22.60;6.70;;;;;;;;;;5006188;28;20026;-68
2022/05/13 04:42:57;;;;;;;12.07;5.63;;;;;;;;;;5000250;28;20272;-68
2022/05/13 04:45:24;;;;;;;21.30;6.18;;;;;;;;;;4999191;28;20263;-68
2022/05/13 04:50:38;;;;;;;14.13;5.53;;;;;;;;;;5000081;28;20084;-68
2022/05/13 04:53:04;;;;;;;26.67;7.05;;;;;;;;;;5000343;28;20026;-69
2022/05/13 04:55:29;;;;;;;18.02;6.43;;;;;;;;;;4995596;28;20030;-69
2022/05/13 04:57:54;;;;;;;20.00;6.57;;;;;;;;;;5001229;28;20033;-69
2022/05/13 05:00:20;;;;;;;26.43;7.73;;;;;;;;;;5001766;28;20281;-70
2022/05/13 05:02:45;;;;;;;24.63;6.45;;;;;;;;;;5006194;28;20282;-69
2022/05/13 05:05:10;;;;;;;30.45;6.60;;;;;;;;;;5001931;28;20080;-69
2022/05/13 05:07:35;;;;;;;29.90;8.02;;;;;;;;;;5002791;28;20484;-68
2022/05/13 05:10:00;;;;;;;25.73;7.18;;;;;;;;;;5006435;28;20017;-69
2022/05/13 05:12:25;;;;;;;20.30;7.30;;;;;;;;;;5009726;28;20441;-69
2022/05/13 05:14:51;;;;;;;22.73;6.93;;;;;;;;;;5002240;28;20498;-69
2022/05/13 05:17:16;;;;;;;21.73;6.82;;;;;;;;;;5004482;28;20041;-69
2022/05/13 05:19:41;;;;;;;28.02;7.80;;;;;;;;;;4997562;28;20042;-69
2022/05/13 05:22:06;;;;;;;25.55;6.30;;;;;;;;;;5000947;28;20030;-69
2022/05/13 05:24:32;;;;;;;18.73;7.55;;;;;;;;;;5012012;28;20061;-68
2022/05/13 05:26:57;;;;;;;22.55;5.65;;;;;;;;;;5000083;28;20034;-68
2022/05/13 05:29:22;;;;;;;19.83;6.20;;;;;;;;;;5004753;28;20029;-69
2022/05/13 05:31:48;;;;;;;23.05;6.85;;;;;;;;;;4996863;28;20022;-69
2022/05/13 05:34:14;;;;;;;25.73;7.15;;;;;;;;;;4996929;28;20036;-68
2022/05/13 05:36:39;;;;;;;22.47;6.57;;;;;;;;;;4999647;28;20022;-70
2022/05/13 05:39:04;;;;;;;22.05;6.80;;;;;;;;;;5000830;28;20830;-71
2022/05/13 05:41:29;;;;;;;22.13;6.77;;;;;;;;;;4995980;28;20660;-71
2022/05/13 05:43:55;;;;;;;30.65;8.80;;;;;;;;;;4993975;28;20358;-70
2022/05/13 05:46:21;;;;;;;26.90;8.23;;;;;;;;;;4975429;28;20053;-69
2022/05/13 05:48:46;;;;;;;19.38;6.13;;;;;;;;;;4992562;28;20057;-68
2022/05/13 05:51:11;;;;;;;25.47;8.13;;;;;;;;;;4991890;28;20088;-69
2022/05/13 05:59:05;;;;;;;32.70;9.02;;;;;;;;;;4991850;28;20056;-69
2022/05/13 06:01:30;;;;;;;33.65;8.35;;;;;;;;;;4995148;28;20108;-70
2022/05/13 06:03:55;;;;;;;31.02;9.35;;;;;;;;;;4994621;28;20073;-69
2022/05/13 06:06:21;;;;;;;24.20;7.03;;;;;;;;;;5000735;28;20038;-71
2022/05/13 06:08:46;;;;;;;23.08;7.78;;;;;;;;;;4994548;28;20287;-69
2022/05/13 06:11:11;;;;;;;29.90;9.18;;;;;;;;;;4995949;28;20089;-69
2022/05/13 06:13:37;;;;;;;22.70;7.70;;;;;;;;;;5002628;28;20088;-68
2022/05/13 06:16:02;;;;;;;26.60;8.52;;;;;;;;;;5000479;28;20036;-69
2022/05/13 06:18:27;;;;;;;33.28;10.68;;;;;;;;;;4992851;28;20029;-72
2022/05/13 06:20:53;;;;;;;24.17;8.45;;;;;;;;;;5001465;28;20022;-70
2022/05/13 06:23:18;;;;;;;24.70;8.23;;;;;;;;;;4995247;28;20041;-71
2022/05/13 06:25:43;;;;;;;24.33;9.50;;;;;;;;;;4993215;28;20022;-68
2022/05/13 06:28:08;;;;;;;21.90;8.00;;;;;;;;;;4993723;28;20059;-70
2022/05/13 06:30:34;;;;;;;23.30;9.13;;;;;;;;;;5000205;28;20841;-72
2022/05/13 06:33:00;;;;;;;27.70;9.27;;;;;;;;;;5003589;28;20034;-70
2022/05/13 06:35:27;;;;;;;21.50;8.52;;;;;;;;;;4999372;28;20463;-70
2022/05/13 06:37:52;;;;;;;30.35;9.45;;;;;;;;;;5003407;28;20361;-71
2022/05/13 06:40:17;;;;;;;23.25;9.63;;;;;;;;;;5001727;28;20026;-71
2022/05/13 06:42:43;;;;;;;36.70;11.30;;;;;;;;;;4991485;28;20041;-71
2022/05/13 06:45:09;;;;;;;23.05;9.18;;;;;;;;;;4999677;28;20025;-69
2022/05/13 06:47:35;;;;;;;30.88;10.57;;;;;;;;;;4991289;28;20033;-69
2022/05/13 06:50:02;;;;;;;37.78;10.77;;;;;;;;;;4995930;28;20068;-69
2022/05/13 06:52:28;;;;;;;26.33;10.55;;;;;;;;;;4988713;28;20420;-71
2022/05/13 06:54:53;;;;;;;30.13;9.55;;;;;;;;;;4997838;28;21426;-71
2022/05/13 06:57:18;;;;;;;23.17;10.02;;;;;;;;;;4996017;28;20044;-69
2022/05/13 06:59:43;;;;;;;23.60;9.07;;;;;;;;;;4994184;28;21273;-71
2022/05/13 07:02:08;;;;;;;31.80;10.30;;;;;;;;;;4992347;28;20440;-70
2022/05/13 07:04:34;;;;;;;37.33;11.90;;;;;;;;;;4990576;28;20534;-70
2022/05/13 07:07:02;;;;;;;34.17;11.38;;;;;;;;;;4993360;28;20031;-71
2022/05/13 07:09:27;;;;;;;19.98;10.98;;;;;;;;;;4998895;28;20443;-70
2022/05/13 07:11:54;;;;;;;27.50;12.15;;;;;;;;;;4995372;28;20436;-69
2022/05/13 07:14:19;;;;;;;32.47;13.05;;;;;;;;;;4993227;28;20442;-70
2022/05/13 07:16:44;;;;;;;29.73;12.63;;;;;;;;;;4992978;28;20557;-70
2022/05/13 07:19:09;;;;;;;28.20;11.60;;;;;;;;;;4990985;28;20037;-70
2022/05/13 07:21:36;;;;;;;27.42;11.35;;;;;;;;;;4991546;28;20040;-71
2022/05/13 07:24:01;;;;;;;35.95;12.85;;;;;;;;;;4996939;28;20064;-68
2022/05/13 07:26:26;;;;;;;26.95;10.93;;;;;;;;;;4989822;28;20045;-70
2022/05/13 07:28:51;;;;;;;22.95;10.10;;;;;;;;;;4999386;28;20037;-70
2022/05/13 07:31:17;;;;;;;31.27;9.82;;;;;;;;;;4997973;28;20377;-69
2022/05/13 07:33:42;;;;;;;31.83;10.07;;;;;;;;;;5002799;28;20021;-70
2022/05/13 07:36:07;;;;;;;20.58;9.77;;;;;;;;;;4996471;28;20108;-70
2022/05/13 07:38:34;;;;;;;20.42;9.48;;;;;;;;;;5002413;28;20111;-70
2022/05/13 07:41:17;;;;;;;23.70;10.60;;;;;;;;;;4996181;28;20112;-70
2022/05/13 07:43:43;;;;;;;25.15;9.25;;;;;;;;;;4993617;28;20038;-69
2022/05/13 07:46:08;;;;;;;21.42;8.85;;;;;;;;;;4973950;28;20030;-69
2022/05/13 07:48:34;;;;;;;20.88;10.25;;;;;;;;;;4993963;28;20034;-70
2022/05/13 07:50:59;;;;;;;25.80;9.30;;;;;;;;;;5001972;28;20156;-71
2022/05/13 07:53:24;;;;;;;16.30;7.90;;;;;;;;;;5001403;28;20021;-71
2022/05/13 07:55:49;;;;;;;16.85;7.50;;;;;;;;;;5000649;28;20029;-71
2022/05/13 07:58:16;;;;;;;17.00;7.53;;;;;;;;;;5001262;28;20026;-71
2022/05/13 08:00:43;;;;;;;18.83;7.57;;;;;;;;;;5001504;28;20120;-72
2022/05/13 08:03:09;;;;;;;18.63;7.47;;;;;;;;;;4996489;28;20321;-71
2022/05/13 08:06:02;;;;;;;18.85;6.85;;;;;;;;;;4997733;28;20022;-69
2022/05/13 08:08:30;;;;;;;15.65;6.88;;;;;;;;;;4995982;28;20010;-70
2022/05/13 08:10:57;;;;;;;17.75;5.53;;;;;;;;;;5004952;28;20051;-71
2022/05/13 08:13:23;;;;;;;12.70;4.40;;;;;;;;;;5000954;28;20033;-71
2022/05/13 08:15:49;;;;;;;16.10;5.00;;;;;;;;;;5006850;28;20457;-72
2022/05/13 08:18:15;;;;;;;14.20;5.40;;;;;;;;;;4999891;28;20024;-71
2022/05/13 08:20:40;;;;;;;11.68;5.55;;;;;;;;;;4980719;28;20026;-69
2022/05/13 08:23:06;;;;;;;18.70;7.10;;;;;;;;;;4998002;28;20115;-70
2022/05/13 08:25:31;;;;;;;20.65;7.50;;;;;;;;;;4997291;28;20034;-69
2022/05/13 08:27:56;;;;;;;14.02;6.43;;;;;;;;;;4999790;28;20065;-71
2022/05/13 08:30:22;;;;;;;12.73;5.93;;;;;;;;;;4979603;28;20052;-71
2022/05/13 08:32:47;;;;;;;17.23;6.40;;;;;;;;;;4996773;28;20096;-68
2022/05/13 08:35:13;;;;;;;17.10;6.20;;;;;;;;;;4998508;28;20026;-71
2022/05/13 08:37:39;;;;;;;18.25;6.95;;;;;;;;;;4994848;28;20032;-70
2022/05/13 08:40:04;;;;;;;15.40;6.68;;;;;;;;;;4999111;28;20029;-70
2022/05/13 08:42:37;;;;;;;15.20;6.00;;;;;;;;;;4996356;28;20420;-69
2022/05/13 08:45:04;;;;;;;12.30;5.70;;;;;;;;;;4997788;28;20095;-70
2022/05/13 08:47:39;;;;;;;21.95;7.28;;;;;;;;;;4998942;28;20080;-72
2022/05/13 08:50:04;;;;;;;15.05;5.57;;;;;;;;;;4999282;28;20464;-70
2022/05/13 08:53:07;;;;;;;14.87;6.47;;;;;;;;;;4995044;28;20070;-70
2022/05/13 08:55:38;;;;;;;14.82;6.00;;;;;;;;;;4997819;28;20271;-68
2022/05/13 08:58:05;;;;;;;13.68;6.15;;;;;;;;;;4998445;28;20053;-72
2022/05/13 09:00:32;;;;;;;14.43;6.75;;;;;;;;;;4996584;28;20033;-70
2022/05/13 09:03:02;;;;;;;13.80;5.65;;;;;;;;;;5002303;28;20028;-70
2022/05/13 09:05:29;;;;;;;10.38;5.88;;;;;;;;;;4998751;28;20354;-70
2022/05/13 09:07:55;;;;;;;15.02;5.57;;;;;;;;;;4996019;28;20108;-69
2022/05/13 09:10:21;;;;;;;11.20;5.93;;;;;;;;;;4997816;28;20129;-70
2022/05/13 09:12:50;;;;;;;12.93;5.10;;;;;;;;;;5005163;28;20168;-70
2022/05/13 09:15:16;;;;;;;10.63;4.57;;;;;;;;;;4998876;28;20021;-71
2022/05/13 09:18:00;;;;;;;15.17;5.20;;;;;;;;;;5001568;28;20014;-67
2022/05/13 09:20:25;;;;;;;7.50;4.32;;;;;;;;;;5002984;28;20600;-69
2022/05/13 09:22:58;;;;;;;18.27;5.57;;;;;;;;;;5001299;28;20029;-70
2022/05/13 09:25:32;;;;;;;13.55;4.75;;;;;;;;;;4999308;28;20032;-69
2022/05/13 09:27:59;;;;;;;7.90;4.15;;;;;;;;;;5005625;28;20030;-70
2022/05/13 09:30:28;;;;;;;12.90;5.40;;;;;;;;;;4996681;28;20026;-69
2022/05/13 09:32:54;;;;;;;15.38;5.00;;;;;;;;;;5000032;28;20128;-70
2022/05/13 09:35:30;;;;;;;14.35;5.45;;;;;;;;;;4991274;28;20021;-69
2022/05/13 14:01:06;;;;;;;7.95;3.22;;;;;;;;;;5023035;28;20045;-68
2022/05/13 14:03:31;;;;;;;5.90;3.00;;;;;;;;;;5018995;28;20025;-70
2022/05/13 14:05:58;;;;;;;7.97;2.88;;;;;;;;;;5019060;28;20064;-70
2022/05/13 14:08:24;;;;;;;8.98;3.53;;;;;;;;;;5013743;28;20400;-70
2022/05/13 14:10:54;;;;;;;9.32;3.00;;;;;;;;;;5014787;28;20064;-68
2022/05/13 14:13:19;;;;;;;8.80;2.75;;;;;;;;;;5015737;28;20246;-69
2022/05/13 14:15:46;;;;;;;9.73;3.17;;;;;;;;;;5019650;28;20432;-69
2022/05/13 14:18:14;;;;;;;5.00;3.22;;;;;;;;;;5017386;28;20017;-69
2022/05/13 14:20:40;;;;;;;9.38;2.72;;;;;;;;;;5018851;28;20155;-71
2022/05/13 14:23:05;;;;;;;8.52;2.65;;;;;;;;;;5017112;28;20026;-70
2022/05/13 14:25:56;;;;;;;6.53;2.60;;;;;;;;;;5018999;28;20021;-69
2022/05/13 14:28:23;;;;;;;8.15;3.00;;;;;;;;;;5009815;28;20033;-72
2022/05/13 14:30:50;;;;;;;6.40;3.17;;;;;;;;;;5017372;28;20029;-70
2022/05/13 14:33:16;;;;;;;6.97;3.65;;;;;;;;;;5017111;28;20025;-71
2022/05/13 14:35:41;;;;;;;9.27;4.18;;;;;;;;;;5018639;28;20335;-70
2022/05/13 14:38:12;;;;;;;12.18;4.03;;;;;;;;;;5018825;28;20029;-70
2022/05/13 14:40:40;;;;;;;7.68;3.60;;;;;;;;;;5017056;28;20021;-71
2022/05/13 14:43:10;;;;;;;9.60;3.72;;;;;;;;;;5013525;28;20037;-69
2022/05/13 14:45:38;;;;;;;8.07;3.83;;;;;;;;;;5006967;28;20124;-70
2022/05/13 14:48:10;;;;;;;9.25;3.60;;;;;;;;;;5011976;28;20109;-69
2022/05/13 14:50:39;;;;;;;6.47;3.60;;;;;;;;;;5015354;28;20025;-69
2022/05/13 14:53:11;;;;;;;11.23;4.68;;;;;;;;;;5016071;28;20491;-70
2022/05/13 14:55:40;;;;;;;10.15;3.60;;;;;;;;;;5015332;28;20036;-70
2022/05/13 14:58:20;;;;;;;9.13;3.38;;;;;;;;;;5017030;28;20018;-69
2022/05/13 15:00:46;;;;;;;11.23;3.55;;;;;;;;;;5013473;28;20037;-70
2022/05/13 15:03:12;;;;;;;9.32;4.45;;;;;;;;;;5012414;28;20330;-70
2022/05/13 15:05:39;;;;;;;5.95;4.72;;;;;;;;;;5021384;28;20030;-69
2022/05/13 15:08:28;;;;;;;10.05;5.50;;;;;;;;;;5017278;28;20052;-69
2022/05/13 15:10:54;;;;;;;12.13;5.72;;;;;;;;;;5004854;28;20128;-69
2022/05/13 15:13:21;;;;;;;9.65;5.75;;;;;;;;;;5010996;28;20251;-69
2022/05/13 15:15:47;;;;;;;10.50;7.28;;;;;;;;;;5015450;28;20047;-68
2022/05/13 15:18:16;;;;;;;14.80;6.60;;;;;;;;;;5011833;28;20026;-71
2022/05/13 15:20:41;;;;;;;13.68;5.80;;;;;;;;;;5011812;28;20331;-70
2022/05/13 15:23:06;;;;;;;8.63;5.70;;;;;;;;;;5009640;28;20431;-69
2022/05/13 15:25:32;;;;;;;12.25;6.55;;;;;;;;;;5013558;28;20115;-71
2022/05/13 15:27:57;;;;;;;10.40;7.13;;;;;;;;;;5014640;28;20045;-71
2022/05/13 15:30:24;;;;;;;10.83;8.00;;;;;;;;;;5016349;28;20054;-71
2022/05/13 15:32:50;;;;;;;17.95;8.40;;;;;;;;;;5018483;28;20025;-71
2022/05/13 15:35:15;;;;;;;13.30;8.90;;;;;;;;;;5016061;28;20036;-71
2022/05/13 15:37:40;;;;;;;13.93;8.97;;;;;;;;;;4995348;28;20476;-70
2022/05/13 15:40:07;;;;;;;15.40;8.53;;;;;;;;;;5016760;28;20026;-70
2022/05/13 15:42:34;;;;;;;11.40;7.68;;;;;;;;;;5013961;28;20108;-70
2022/05/13 15:44:59;;;;;;;9.93;7.45;;;;;;;;;;5010903;28;20026;-70
2022/05/13 15:47:26;;;;;;;10.87;7.67;;;;;;;;;;5012903;28;20021;-71
2022/05/13 15:52:41;;;;;;;11.40;7.13;;;;;;;;;;5010588;28;20037;-71
2022/05/13 15:55:09;;;;;;;9.55;8.00;;;;;;;;;;5016859;28;20048;-70
2022/05/13 15:57:36;;;;;;;8.82;7.35;;;;;;;;;;5018155;28;20044;-70
2022/05/13 16:00:03;;;;;;;11.82;7.90;;;;;;;;;;5018908;28;20056;-71
2022/05/13 16:02:29;;;;;;;19.48;8.88;;;;;;;;;;5013491;28;20026;-70
2022/05/13 16:04:54;;;;;;;12.25;7.28;;;;;;;;;;5009800;28;20587;-70
2022/05/13 16:07:19;;;;;;;11.30;6.70;;;;;;;;;;4993642;28;20025;-70
2022/05/13 16:09:44;;;;;;;9.60;5.60;;;;;;;;;;5011813;28;20049;-70
2022/05/13 16:12:14;;;;;;;9.63;6.75;;;;;;;;;;5014535;28;20053;-70
2022/05/13 16:14:39;;;;;;;9.18;6.13;;;;;;;;;;5016389;28;20041;-69
2022/05/13 16:17:09;;;;;;;12.05;5.85;;;;;;;;;;5014539;28;20040;-69
2022/05/13 16:19:34;;;;;;;13.00;5.97;;;;;;;;;;5013772;28;20570;-68
2022/05/13 16:22:01;;;;;;;9.20;5.43;;;;;;;;;;5017732;28;20033;-68
2022/05/13 16:24:27;;;;;;;9.27;5.47;;;;;;;;;;5015994;28;20022;-70
2022/05/13 16:26:53;;;;;;;14.13;5.93;;;;;;;;;;5015916;28;20088;-71
2022/05/13 16:29:18;;;;;;;10.48;4.88;;;;;;;;;;5019884;28;20962;-71
2022/05/13 16:31:43;;;;;;;11.95;6.10;;;;;;;;;;5016019;28;20482;-71
2022/05/13 16:34:09;;;;;;;9.55;5.38;;;;;;;;;;5019081;28;20076;-74
2022/05/13 16:37:41;;;;;;;11.98;5.18;;;;;;;;;;5017547;28;20079;-74
2022/05/13 16:39:19;;;;;;;14.80;4.68;;;;;;;;;;5024771;28;20046;-75
2022/05/13 16:41:44;;;;;;;11.90;5.13;;;;;;;;;;5024807;28;20025;-76
2022/05/13 16:44:11;;;;;;;9.65;4.53;;;;;;;;;;5016486;28;20024;-74
2022/05/13 16:46:36;;;;;;;4.22;3.60;;;;;;;;;;5018907;28;20040;-77
2022/05/13 16:49:02;;;;;;;9.35;4.05;;;;;;;;;;5016419;28;20033;-72
2022/05/13 16:51:27;;;;;;;7.95;4.00;;;;;;;;;;5022810;28;20029;-74
2022/05/13 16:53:52;;;;;;;11.63;4.85;;;;;;;;;;5019299;28;20049;-75
2022/05/13 16:56:17;;;;;;;12.05;4.18;;;;;;;;;;5002423;28;20477;-75
2022/05/13 16:58:42;;;;;;;5.17;3.17;;;;;;;;;;5026449;28;20671;-73
2022/05/13 17:01:08;;;;;;;14.55;4.03;;;;;;;;;;5020332;28;20421;-75
2022/05/13 17:03:33;;;;;;;9.30;3.17;;;;;;;;;;5006590;28;20040;-74
2022/05/13 17:05:58;;;;;;;11.30;3.50;;;;;;;;;;5024421;28;20040;-72
2022/05/13 17:08:23;;;;;;;7.53;2.90;;;;;;;;;;5020046;28;20017;-72
2022/05/13 17:16:23;;;;;;;5.35;3.00;;;;;;;;;;5021572;28;20033;-68
2022/05/13 17:21:42;;;;;;;13.65;3.28;;;;;;;;;;5023310;28;20064;-68
2022/05/13 17:24:10;;;;;;;7.50;2.88;;;;;;;;;;5021861;28;20022;-70
2022/05/13 17:26:36;;;;;;;8.63;3.22;;;;;;;;;;5015594;28;20021;-71
2022/05/13 17:29:01;;;;;;;9.23;2.90;;;;;;;;;;5018785;28;20463;-69
2022/05/13 17:31:26;;;;;;;8.27;2.97;;;;;;;;;;5019542;28;20029;-71
2022/05/13 17:33:51;;;;;;;10.35;3.28;;;;;;;;;;5019285;28;20259;-68
2022/05/13 17:36:16;;;;;;;6.70;2.70;;;;;;;;;;5018685;28;20038;-68
2022/05/13 17:38:42;;;;;;;7.63;2.80;;;;;;;;;;5022045;28;20030;-68
2022/05/13 17:41:07;;;;;;;8.98;3.00;;;;;;;;;;5024469;28;20408;-68
2022/05/13 17:43:33;;;;;;;9.32;2.55;;;;;;;;;;5025314;28;20056;-68
2022/05/13 17:45:58;;;;;;;4.38;2.03;;;;;;;;;;5028143;28;20037;-68
2022/05/13 17:48:23;;;;;;;10.57;2.40;;;;;;;;;;5026201;28;20065;-68
2022/05/13 17:50:50;;;;;;;10.67;2.63;;;;;;;;;;5028730;28;20278;-67
2022/05/13 17:53:19;;;;;;;9.30;2.47;;;;;;;;;;5024249;28;20270;-68
2022/05/13 17:55:45;;;;;;;8.07;2.70;;;;;;;;;;5022725;28;20037;-68
2022/05/13 17:58:10;;;;;;;11.23;3.58;;;;;;;;;;5020793;28;20123;-68
2022/05/13 18:00:36;;;;;;;13.40;3.40;;;;;;;;;;5013751;28;20022;-68
2022/05/13 18:03:01;;;;;;;17.05;3.42;;;;;;;;;;5015247;28;20632;-68
2022/05/13 18:05:27;;;;;;;14.13;3.40;;;;;;;;;;5014970;28;20036;-68
2022/05/13 18:07:53;;;;;;;12.65;3.67;;;;;;;;;;5016659;28;20063;-68
2022/05/13 18:10:18;;;;;;;15.43;3.05;;;;;;;;;;5019387;28;20531;-68
2022/05/13 18:12:44;;;;;;;10.88;3.25;;;;;;;;;;5016301;28;20025;-70
2022/05/13 18:15:10;;;;;;;12.15;3.10;;;;;;;;;;5020222;28;20026;-68
2022/05/13 18:17:35;;;;;;;16.88;3.30;;;;;;;;;;5019729;28;20021;-67
2022/05/13 18:20:01;;;;;;;11.40;3.25;;;;;;;;;;5014629;28;20022;-68
2022/05/13 18:22:26;;;;;;;14.20;3.20;;;;;;;;;;5023355;28;20028;-68
2022/05/13 18:24:51;;;;;;;13.60;2.83;;;;;;;;;;5018731;28;20021;-68
2022/05/13 18:27:17;;;;;;;14.73;3.20;;;;;;;;;;5020273;28;21893;-68
2022/05/13 18:29:44;;;;;;;10.75;3.00;;;;;;;;;;5018361;28;20539;-69
2022/05/13 18:32:09;;;;;;;10.40;3.03;;;;;;;;;;5012546;28;20087;-68
2022/05/13 18:34:34;;;;;;;16.30;3.53;;;;;;;;;;5017031;28;20361;-68
2022/05/13 18:36:59;;;;;;;16.03;3.80;;;;;;;;;;5015439;28;20025;-69
2022/05/13 18:39:25;;;;;;;19.00;3.75;;;;;;;;;;5016974;28;20036;-68
2022/05/13 18:47:18;;;;;;;9.50;3.45;;;;;;;;;;5025192;28;20134;-68
2022/05/13 18:49:45;;;;;;;10.80;3.10;;;;;;;;;;5024558;28;20018;-69
2022/05/13 18:52:11;;;;;;;13.38;3.65;;;;;;;;;;5022174;28;20263;-70
2022/05/13 18:54:36;;;;;;;13.95;3.05;;;;;;;;;;5018650;28;20519;-69
2022/05/13 18:57:02;;;;;;;15.13;3.80;;;;;;;;;;5020912;28;20068;-69
2022/05/13 18:59:27;;;;;;;12.52;3.00;;;;;;;;;;5005798;28;20309;-68
2022/05/13 19:01:52;;;;;;;10.50;2.60;;;;;;;;;;5022700;28;20055;-68
2022/05/13 19:04:19;;;;;;;26.27;4.93;;;;;;;;;;5019929;28;20275;-72
2022/05/13 19:06:46;;;;;;;9.60;3.10;;;;;;;;;;5016051;28;20308;-68
2022/05/13 19:09:11;;;;;;;8.20;2.70;;;;;;;;;;5020132;28;20021;-69
2022/05/13 19:11:36;;;;;;;10.20;2.63;;;;;;;;;;5030121;28;20056;-68
2022/05/13 19:14:02;;;;;;;7.50;3.20;;;;;;;;;;5022073;28;20115;-68
2022/05/13 19:16:28;;;;;;;8.75;2.92;;;;;;;;;;5019409;28;20116;-68
2022/05/13 19:18:54;;;;;;;10.32;2.75;;;;;;;;;;5018300;28;20014;-68
2022/05/13 19:21:19;;;;;;;13.35;3.10;;;;;;;;;;5016150;28;20021;-68
2022/05/13 19:23:44;;;;;;;14.20;2.63;;;;;;;;;;5003231;28;20463;-69
2022/05/13 19:26:11;;;;;;;17.88;3.05;;;;;;;;;;5016595;28;20298;-68
2022/05/13 19:28:37;;;;;;;11.75;4.32;;;;;;;;;;4998391;28;20025;-68